This is the latest recevied weather packets stored in our database for station/object DL8BZ-10. If no packets are shown the sender has not sent any weather packets the latest 10 day(s).
| Time | Temp. | Humidity | Pressure | Rain* | Wind** | Luminosity | Snow |
|---|---|---|---|---|---|---|---|
| 1777846557 | 23.33° C | 35% | 1011.5 hPa | - | - | - | - |
| 1777843237 | 23.33° C | 34% | 1011.6 hPa | - | - | - | - |
| 1777839917 | 23.89° C | 33% | 1011.5 hPa | - | - | - | - |
| 1777836617 | 23.89° C | 33% | 1011.4 hPa | - | - | - | - |
| 1777833316 | 24.44° C | 32% | 1011.1 hPa | - | - | - | - |
| 1777829996 | 25.56° C | 31% | 1010.4 hPa | - | - | - | - |
| 1777826676 | 26.67° C | 28% | 1010.4 hPa | - | - | - | - |
| 1777823355 | 27.78° C | 27% | 1010.2 hPa | - | - | - | - |
| 1777820055 | 28.89° C | 24% | 1009.6 hPa | - | - | - | - |
| 1777816754 | 31.67° C | 21% | 1009.8 hPa | - | - | - | - |
| 1777813454 | 32.78° C | 21% | 1009.7 hPa | - | - | - | - |
| 1777810134 | 30° C | 25% | 1010.2 hPa | - | - | - | - |
| 1777806814 | 30° C | 25% | 1010.4 hPa | - | - | - | - |
| 1777803494 | 31.67° C | 23% | 1010.7 hPa | - | - | - | - |
| 1777800193 | 27.78° C | 29% | 1011.3 hPa | - | - | - | - |
| 1777796892 | 26.67° C | 30% | 1011.3 hPa | - | - | - | - |
| 1777793573 | 25° C | 33% | 1011.8 hPa | - | - | - | - |
| 1777790253 | 23.33° C | 36% | 1011.6 hPa | - | - | - | - |
| 1777786933 | 22.78° C | 37% | 1011.4 hPa | - | - | - | - |
| 1777780293 | 22.22° C | 37% | 1012.4 hPa | - | - | - | - |
| 1777776973 | 22.78° C | 37% | 1012.4 hPa | - | - | - | - |
| 1777773653 | 22.78° C | 36% | 1013 hPa | - | - | - | - |
| 1777770333 | 23.33° C | 36% | 1013.4 hPa | - | - | - | - |
| 1777767013 | 23.33° C | 35% | 1013.2 hPa | - | - | - | - |
| 1777763693 | 23.89° C | 34% | 1013.7 hPa | - | - | - | - |
* Rain since midnight (hover to see other rain measurements)
** Current wind speed in m/s (hover to see current wind gust speed)